createdAt,value
2017-01-02T00:00:11.625Z,0
2017-01-02T00:00:52.276Z,0
2017-01-02T00:01:32.926Z,0
2017-01-02T00:02:13.585Z,0
2017-01-02T00:02:54.240Z,0
2017-01-02T00:03:34.833Z,0
2017-01-02T00:04:15.448Z,0
2017-01-02T00:04:56.097Z,0
2017-01-02T00:05:36.648Z,0
2017-01-02T00:06:17.297Z,0
2017-01-02T00:06:57.950Z,0
2017-01-02T00:07:38.529Z,0
2017-01-02T00:08:19.153Z,0
2017-01-02T00:08:59.812Z,0
2017-01-02T00:09:40.462Z,0
2017-01-02T00:10:21.133Z,0
2017-01-02T00:11:01.767Z,0
2017-01-02T00:11:42.420Z,0
2017-01-02T00:12:23.069Z,0
2017-01-02T00:13:03.720Z,0
2017-01-02T00:13:44.282Z,0
2017-01-02T00:14:24.987Z,0
2017-01-02T00:15:05.596Z,0
2017-01-02T00:15:46.236Z,0
2017-01-02T00:16:26.806Z,0
2017-01-02T00:17:07.409Z,0
2017-01-02T00:17:48.091Z,0
2017-01-02T00:18:28.746Z,0
2017-01-02T00:19:09.328Z,0
2017-01-02T00:19:49.945Z,0
2017-01-02T00:20:30.613Z,0
2017-01-02T00:21:11.171Z,0
2017-01-02T00:21:51.806Z,0
2017-01-02T00:22:32.467Z,0
2017-01-02T00:23:13.033Z,0
2017-01-02T00:23:53.667Z,0
2017-01-02T00:24:34.320Z,0
2017-01-02T00:25:14.892Z,0
2017-01-02T00:25:55.473Z,0
2017-01-02T00:26:36.070Z,0
2017-01-02T00:27:16.736Z,0
2017-01-02T00:27:57.296Z,0
2017-01-02T00:28:37.880Z,0
2017-01-02T00:29:18.477Z,0
2017-01-02T00:29:59.123Z,0
2017-01-02T00:30:39.777Z,0
2017-01-02T00:31:20.435Z,0
2017-01-02T00:32:01.096Z,0
2017-01-02T00:32:41.739Z,0
2017-01-02T00:33:22.386Z,0
2017-01-02T00:34:03.057Z,0
2017-01-02T00:34:43.694Z,0
2017-01-02T00:35:24.346Z,0
2017-01-02T00:36:05.006Z,0
2017-01-02T00:36:45.658Z,0
2017-01-02T00:37:26.307Z,0
2017-01-02T00:38:06.956Z,0
2017-01-02T00:38:47.536Z,0
2017-01-02T00:39:28.163Z,0
2017-01-02T00:40:08.869Z,0
2017-01-02T00:40:49.438Z,0
2017-01-02T00:41:30.021Z,0
2017-01-02T00:42:10.678Z,0
2017-01-02T00:42:51.260Z,0
2017-01-02T00:43:31.874Z,0
2017-01-02T00:44:12.528Z,0
2017-01-02T00:44:53.096Z,0
2017-01-02T00:45:33.730Z,0
2017-01-02T00:46:14.386Z,0
2017-01-02T00:46:54.960Z,0
2017-01-02T00:47:35.605Z,0
2017-01-02T00:48:16.242Z,0
2017-01-02T00:48:56.815Z,0
2017-01-02T00:49:37.400Z,0
2017-01-02T00:50:18.016Z,0
2017-01-02T00:50:58.648Z,0
2017-01-02T00:51:39.233Z,0
2017-01-02T00:52:19.906Z,0
2017-01-02T00:53:00.516Z,0
2017-01-02T00:53:41.162Z,0
2017-01-02T00:54:21.737Z,0
2017-01-02T00:55:03.358Z,0
2017-01-02T00:55:43.945Z,0
2017-01-02T00:56:24.691Z,0
2017-01-02T00:57:05.268Z,0
2017-01-02T00:57:45.857Z,0
2017-01-02T00:58:26.459Z,0
2017-01-02T00:59:08.019Z,0
2017-01-02T00:59:48.670Z,0
2017-01-02T01:00:29.324Z,0
2017-01-02T01:01:09.989Z,0
2017-01-02T01:01:50.640Z,0
2017-01-02T01:02:31.280Z,0
2017-01-02T01:03:11.935Z,0
2017-01-02T01:03:52.511Z,0
2017-01-02T01:04:34.103Z,0
2017-01-02T01:05:14.722Z,0
2017-01-02T01:05:55.374Z,0
2017-01-02T01:06:35.927Z,0
2017-01-02T01:07:16.521Z,0
2017-01-02T01:07:57.128Z,0
2017-01-02T01:08:37.774Z,0
2017-01-02T01:09:18.338Z,0
2017-01-02T01:09:58.924Z,0
2017-01-02T01:10:39.535Z,0
2017-01-02T01:11:20.180Z,0
2017-01-02T01:12:00.757Z,0
2017-01-02T01:12:41.456Z,0
2017-01-02T01:13:22.046Z,0
2017-01-02T01:14:02.703Z,0
2017-01-02T01:14:43.271Z,0
2017-01-02T01:15:23.847Z,0
2017-01-02T01:16:04.450Z,0
2017-01-02T01:16:45.020Z,0
2017-01-02T01:17:25.615Z,0
2017-01-02T01:18:06.203Z,0
2017-01-02T01:18:46.851Z,0
2017-01-02T01:19:27.428Z,0
2017-01-02T01:20:08.011Z,0
2017-01-02T01:20:48.610Z,0
2017-01-02T01:21:29.272Z,0
2017-01-02T01:22:09.815Z,0
2017-01-02T01:22:50.399Z,0
2017-01-02T01:23:31.012Z,0
2017-01-02T01:24:11.670Z,0
2017-01-02T01:24:52.236Z,0
2017-01-02T01:25:32.845Z,0
2017-01-02T01:26:13.537Z,0
2017-01-02T01:26:54.166Z,0
2017-01-02T01:27:34.737Z,0
2017-01-02T01:28:15.332Z,0
2017-01-02T01:28:55.921Z,0
2017-01-02T01:29:36.585Z,0
2017-01-02T01:30:17.157Z,0
2017-01-02T01:30:57.744Z,0
2017-01-02T01:31:38.331Z,0
2017-01-02T01:32:18.990Z,0
2017-01-02T01:32:59.619Z,0
2017-01-02T01:33:40.245Z,0
2017-01-02T01:34:20.853Z,0
2017-01-02T01:35:01.457Z,0
2017-01-02T01:35:42.159Z,0
2017-01-02T01:36:22.811Z,0
2017-01-02T01:37:03.354Z,0
2017-01-02T01:37:44.001Z,0
2017-01-02T01:38:24.665Z,0
2017-01-02T01:39:05.242Z,0
2017-01-02T01:39:45.857Z,0
2017-01-02T01:40:26.521Z,0
2017-01-02T01:41:07.093Z,0
2017-01-02T01:41:47.722Z,0
2017-01-02T01:42:28.371Z,0
2017-01-02T01:43:08.947Z,0
2017-01-02T01:43:49.700Z,0
2017-01-02T01:44:30.334Z,0
2017-01-02T01:45:10.891Z,0
2017-01-02T01:45:51.492Z,0
2017-01-02T01:46:32.077Z,0
2017-01-02T01:47:12.750Z,0
2017-01-02T01:47:53.295Z,0
2017-01-02T01:48:33.898Z,0
2017-01-02T01:49:14.493Z,0
2017-01-02T01:49:55.144Z,0
2017-01-02T01:50:35.808Z,0
2017-01-02T01:51:16.453Z,0
2017-01-02T01:51:57.103Z,0
2017-01-02T01:52:37.756Z,0
2017-01-02T01:53:18.412Z,0
2017-01-02T01:53:59.064Z,0
2017-01-02T01:54:39.630Z,0
2017-01-02T01:55:20.221Z,0
2017-01-02T01:56:00.815Z,0
2017-01-02T01:56:41.500Z,0
2017-01-02T01:57:22.070Z,0
2017-01-02T01:58:02.717Z,0
2017-01-02T01:58:43.328Z,0
2017-01-02T01:59:23.981Z,0
2017-01-02T02:00:04.556Z,0
2017-01-02T02:00:45.138Z,0
2017-01-02T02:01:25.835Z,0
2017-01-02T02:02:06.487Z,0
2017-01-02T02:02:47.059Z,0
2017-01-02T02:03:27.647Z,0
2017-01-02T02:04:08.246Z,0
2017-01-02T02:04:48.886Z,0
2017-01-02T02:05:29.553Z,0
2017-01-02T02:06:10.200Z,0
2017-01-02T02:06:50.862Z,0
2017-01-02T02:07:31.503Z,0
2017-01-02T02:08:12.159Z,0
2017-01-02T02:08:52.813Z,0
2017-01-02T02:09:33.463Z,0
2017-01-02T02:10:14.043Z,0
2017-01-02T02:10:54.672Z,0
2017-01-02T02:11:35.329Z,0
2017-01-02T02:12:15.888Z,0
2017-01-02T02:12:56.533Z,0
2017-01-02T02:13:37.185Z,0
2017-01-02T02:14:17.761Z,0
2017-01-02T02:14:58.389Z,0
2017-01-02T02:15:39.031Z,0
2017-01-02T02:16:19.600Z,0
2017-01-02T02:17:00.248Z,0
2017-01-02T02:17:40.888Z,0
2017-01-02T02:18:21.467Z,0
2017-01-02T02:19:02.092Z,0
2017-01-02T02:19:42.746Z,0
2017-01-02T02:20:23.316Z,0
2017-01-02T02:21:03.905Z,0
2017-01-02T02:21:44.500Z,0
2017-01-02T02:22:25.152Z,0
2017-01-02T02:23:05.712Z,0
2017-01-02T02:23:46.327Z,0
2017-01-02T02:24:26.915Z,0
2017-01-02T02:25:07.561Z,0
2017-01-02T02:25:48.333Z,0
2017-01-02T02:26:29.004Z,0
2017-01-02T02:27:09.623Z,0
2017-01-02T02:27:50.270Z,0
2017-01-02T02:28:30.923Z,0
2017-01-02T02:29:11.591Z,0
2017-01-02T02:29:52.236Z,0
2017-01-02T02:30:32.885Z,0
2017-01-02T02:31:13.550Z,0
2017-01-02T02:31:54.202Z,0
2017-01-02T02:32:34.853Z,0
2017-01-02T02:33:15.547Z,0
2017-01-02T02:33:56.140Z,0
2017-01-02T02:34:36.816Z,0
2017-01-02T02:35:17.375Z,0
2017-01-02T02:35:58.987Z,0
2017-01-02T02:36:39.580Z,0
2017-01-02T02:37:20.246Z,0
2017-01-02T02:38:00.901Z,0
2017-01-02T02:38:41.490Z,0
2017-01-02T02:39:22.091Z,0
2017-01-02T02:40:02.753Z,0
2017-01-02T02:40:43.391Z,0
2017-01-02T02:41:24.050Z,0
2017-01-02T02:42:04.711Z,0
2017-01-02T02:42:45.349Z,0
2017-01-02T02:43:26.005Z,0
2017-01-02T02:44:06.697Z,0
2017-01-02T02:44:47.252Z,0
2017-01-02T02:45:27.859Z,0
2017-01-02T02:46:08.521Z,0
2017-01-02T02:46:49.091Z,0
2017-01-02T02:47:29.715Z,0
2017-01-02T02:48:10.383Z,0
2017-01-02T02:48:50.946Z,0
2017-01-02T02:49:31.571Z,0
2017-01-02T02:50:12.240Z,0
2017-01-02T02:50:52.810Z,0
2017-01-02T02:51:33.388Z,0
2017-01-02T02:52:13.990Z,0
2017-01-02T02:52:54.638Z,0
2017-01-02T02:53:35.217Z,0
2017-01-02T02:54:15.794Z,0
2017-01-02T02:54:56.437Z,0
2017-01-02T02:55:37.112Z,0
2017-01-02T02:56:17.762Z,0
2017-01-02T02:56:58.413Z,0
2017-01-02T02:57:39.054Z,0
2017-01-02T02:58:19.729Z,0
2017-01-02T02:59:00.363Z,0
2017-01-02T02:59:40.964Z,0
2017-01-02T03:00:21.620Z,0
2017-01-02T03:01:02.196Z,0
2017-01-02T03:01:42.783Z,0
2017-01-02T03:02:23.377Z,0
2017-01-02T03:03:04.028Z,0
2017-01-02T03:03:44.580Z,0
2017-01-02T03:04:25.175Z,0
2017-01-02T03:05:05.816Z,0
2017-01-02T03:05:46.481Z,0
2017-01-02T03:06:27.140Z,0
2017-01-02T03:07:07.788Z,0
2017-01-02T03:07:48.448Z,0
2017-01-02T03:08:29.116Z,0
2017-01-02T03:09:09.753Z,0
2017-01-02T03:09:50.354Z,0
2017-01-02T03:10:30.939Z,0
2017-01-02T03:11:11.549Z,0
2017-01-02T03:11:52.205Z,0
2017-01-02T03:12:32.768Z,0
2017-01-02T03:13:13.403Z,0
2017-01-02T03:13:54.051Z,0
2017-01-02T03:14:34.657Z,0
2017-01-02T03:15:15.264Z,0
2017-01-02T03:15:55.921Z,0
2017-01-02T03:16:36.494Z,0
2017-01-02T03:17:17.127Z,0
2017-01-02T03:17:57.684Z,0
2017-01-02T03:18:38.327Z,0
2017-01-02T03:19:18.979Z,0
2017-01-02T03:19:59.532Z,0
2017-01-02T03:20:40.228Z,0
2017-01-02T03:21:20.836Z,0
2017-01-02T03:22:01.398Z,0
2017-01-02T03:22:42.037Z,0
2017-01-02T03:23:22.690Z,0
2017-01-02T03:24:03.265Z,0
2017-01-02T03:24:43.888Z,0
2017-01-02T03:25:24.550Z,0
2017-01-02T03:26:05.123Z,0
2017-01-02T03:26:45.720Z,0
2017-01-02T03:27:26.410Z,0
2017-01-02T03:28:07.056Z,0
2017-01-02T03:28:47.607Z,0
2017-01-02T03:29:28.264Z,0
2017-01-02T03:30:08.914Z,0
2017-01-02T03:30:49.574Z,0
2017-01-02T03:31:30.216Z,0
2017-01-02T03:32:10.869Z,0
2017-01-02T03:32:51.541Z,0
2017-01-02T03:33:32.178Z,0
2017-01-02T03:34:12.738Z,0
2017-01-02T03:34:53.377Z,0
2017-01-02T03:35:34.053Z,0
2017-01-02T03:36:14.629Z,0
2017-01-02T03:36:55.247Z,0
2017-01-02T03:37:35.890Z,0
2017-01-02T03:38:16.459Z,0
2017-01-02T03:38:57.089Z,0
2017-01-02T03:39:37.747Z,0
2017-01-02T03:40:18.403Z,0
2017-01-02T03:40:59.057Z,0
2017-01-02T03:41:39.710Z,0
2017-01-02T03:42:20.363Z,0
2017-01-02T03:43:01.013Z,0
2017-01-02T03:43:41.659Z,0
2017-01-02T03:44:22.315Z,0
2017-01-02T03:45:02.973Z,0
2017-01-02T03:45:43.623Z,0
2017-01-02T03:46:24.279Z,0
2017-01-02T03:47:04.926Z,0
2017-01-02T03:47:45.582Z,0
2017-01-02T03:48:26.229Z,0
2017-01-02T03:49:06.806Z,0
2017-01-02T03:49:47.404Z,0
2017-01-02T03:50:28.085Z,0
2017-01-02T03:51:09.763Z,0
2017-01-02T03:51:50.324Z,0
2017-01-02T03:52:30.939Z,0
2017-01-02T03:53:11.540Z,0
2017-01-02T03:53:52.174Z,0
2017-01-02T03:54:32.823Z,0
2017-01-02T03:55:13.483Z,0
2017-01-02T03:55:54.131Z,0
2017-01-02T03:56:34.781Z,0
2017-01-02T03:57:15.430Z,0
2017-01-02T03:57:56.094Z,0
2017-01-02T03:58:36.748Z,0
2017-01-02T03:59:17.401Z,0
2017-01-02T03:59:58.042Z,0
2017-01-02T04:00:38.698Z,0
2017-01-02T04:01:19.249Z,0
2017-01-02T04:01:59.902Z,0
2017-01-02T04:02:40.565Z,0
2017-01-02T04:03:21.212Z,0
2017-01-02T04:04:01.870Z,0
2017-01-02T04:04:42.563Z,0
2017-01-02T04:05:23.176Z,0
2017-01-02T04:06:03.826Z,0
2017-01-02T04:06:44.471Z,0
2017-01-02T04:07:25.131Z,0
2017-01-02T04:08:05.780Z,0
2017-01-02T04:08:46.442Z,0
2017-01-02T04:09:27.013Z,0
2017-01-02T04:10:07.638Z,0
2017-01-02T04:10:48.282Z,0
2017-01-02T04:11:28.847Z,0
2017-01-02T04:12:09.492Z,0
2017-01-02T04:12:50.147Z,0
2017-01-02T04:13:30.718Z,0
2017-01-02T04:14:12.416Z,0
2017-01-02T04:14:53.034Z,0
2017-01-02T04:15:33.608Z,0
2017-01-02T04:16:14.236Z,0
2017-01-02T04:16:54.891Z,0
2017-01-02T04:17:35.454Z,0
2017-01-02T04:18:16.082Z,0
2017-01-02T04:18:56.743Z,0
2017-01-02T04:19:37.390Z,0
2017-01-02T04:20:18.049Z,0
2017-01-02T04:20:58.702Z,0
2017-01-02T04:21:39.346Z,0
2017-01-02T04:22:20.391Z,0
2017-01-02T04:23:01.064Z,0
2017-01-02T04:23:41.730Z,0
2017-01-02T04:24:22.307Z,0
2017-01-02T04:25:02.919Z,0
2017-01-02T04:25:43.989Z,0
2017-01-02T04:26:24.563Z,0
2017-01-02T04:27:05.182Z,0
2017-01-02T04:27:45.858Z,0
2017-01-02T04:28:26.420Z,0
2017-01-02T04:29:07.039Z,0
2017-01-02T04:29:47.695Z,0
2017-01-02T04:30:28.366Z,0
2017-01-02T04:31:09.002Z,0
2017-01-02T04:31:49.660Z,0
2017-01-02T04:32:30.319Z,0
2017-01-02T04:33:10.961Z,0
2017-01-02T04:33:51.617Z,0
2017-01-02T04:34:32.285Z,0
2017-01-02T04:35:12.831Z,0
2017-01-02T04:35:53.430Z,0
2017-01-02T04:36:34.016Z,0
2017-01-02T04:37:14.676Z,0
2017-01-02T04:37:55.228Z,0
2017-01-02T04:38:35.827Z,0
2017-01-02T04:39:16.507Z,0
2017-01-02T04:39:57.168Z,0
2017-01-02T04:40:38.840Z,0
2017-01-02T04:41:19.493Z,0
2017-01-02T04:42:01.062Z,0
2017-01-02T04:42:41.719Z,0
2017-01-02T04:43:22.366Z,0
2017-01-02T04:44:03.021Z,0
2017-01-02T04:44:43.673Z,0
2017-01-02T04:45:24.839Z,0
2017-01-02T04:46:05.494Z,0
2017-01-02T04:46:46.161Z,0
2017-01-02T04:47:26.788Z,0
2017-01-02T04:48:07.451Z,0
2017-01-02T04:48:48.106Z,0
2017-01-02T04:49:28.752Z,0
2017-01-02T04:50:09.398Z,0
2017-01-02T04:50:50.060Z,0
2017-01-02T04:51:30.719Z,0
2017-01-02T04:52:11.384Z,0
2017-01-02T04:52:52.091Z,0
2017-01-02T04:53:32.677Z,0
2017-01-02T04:54:13.328Z,0
2017-01-02T04:54:53.980Z,0
2017-01-02T04:55:34.630Z,0
2017-01-02T04:56:15.288Z,0
2017-01-02T04:56:55.940Z,0
2017-01-02T04:57:36.590Z,0
2017-01-02T04:58:17.245Z,0
2017-01-02T04:58:57.907Z,0
2017-01-02T04:59:38.465Z,0
2017-01-02T05:00:19.087Z,0
2017-01-02T05:00:59.747Z,0
2017-01-02T05:01:40.375Z,0
2017-01-02T05:02:20.963Z,0
2017-01-02T05:03:01.600Z,0
2017-01-02T05:03:42.172Z,0
2017-01-02T05:04:22.796Z,0
2017-01-02T05:05:04.640Z,0
2017-01-02T05:05:46.374Z,0
2017-01-02T05:06:27.021Z,0
2017-01-02T05:07:07.678Z,0
2017-01-02T05:07:48.326Z,0
2017-01-02T05:08:28.968Z,0
2017-01-02T05:09:09.551Z,0
2017-01-02T05:09:50.121Z,0
2017-01-02T05:10:31.768Z,0
2017-01-02T05:11:12.413Z,0
2017-01-02T05:11:52.983Z,0
2017-01-02T05:12:33.550Z,0
2017-01-02T05:13:15.399Z,0
2017-01-02T05:13:56.035Z,0
2017-01-02T05:14:37.621Z,0
2017-01-02T05:15:18.278Z,0
2017-01-02T05:15:58.921Z,0
2017-01-02T05:16:39.591Z,0
2017-01-02T05:17:20.151Z,0
2017-01-02T05:18:00.773Z,0
2017-01-02T05:18:41.446Z,0
2017-01-02T05:19:23.102Z,0
2017-01-02T05:20:03.777Z,0
2017-01-02T05:20:44.372Z,0
2017-01-02T05:21:25.025Z,0
2017-01-02T05:22:05.618Z,0
2017-01-02T05:22:46.173Z,0
2017-01-02T05:23:26.829Z,0
2017-01-02T05:24:08.498Z,0
2017-01-02T05:24:49.074Z,0
2017-01-02T05:25:30.726Z,0
2017-01-02T05:26:11.385Z,0
2017-01-02T05:26:52.008Z,0
2017-01-02T05:27:33.615Z,0
2017-01-02T05:28:14.252Z,0
2017-01-02T05:28:54.838Z,0
2017-01-02T05:29:35.480Z,0
2017-01-02T05:30:16.115Z,0
2017-01-02T05:30:56.677Z,0
2017-01-02T05:31:38.350Z,0
2017-01-02T05:32:18.997Z,0
2017-01-02T05:32:59.573Z,0
2017-01-02T05:33:40.237Z,0
2017-01-02T05:34:20.861Z,0
2017-01-02T05:35:01.521Z,0
2017-01-02T05:35:42.170Z,0
2017-01-02T05:36:22.815Z,0
2017-01-02T05:37:03.479Z,0
2017-01-02T05:37:44.114Z,0
2017-01-02T05:38:24.777Z,0
2017-01-02T05:39:05.429Z,0
2017-01-02T05:39:46.084Z,0
2017-01-02T05:40:26.737Z,0
2017-01-02T05:41:07.380Z,0
2017-01-02T05:41:48.038Z,0
2017-01-02T05:42:28.699Z,0
2017-01-02T05:43:09.345Z,0
2017-01-02T05:43:50.009Z,0
2017-01-02T05:44:30.654Z,0
2017-01-02T05:45:11.706Z,0
2017-01-02T05:45:52.367Z,0
2017-01-02T05:46:32.935Z,0
2017-01-02T05:47:13.561Z,0
2017-01-02T05:47:54.229Z,0
2017-01-02T05:48:34.795Z,0
2017-01-02T05:49:16.440Z,0
2017-01-02T05:49:57.106Z,0
2017-01-02T05:50:37.677Z,0
2017-01-02T05:51:18.253Z,0
2017-01-02T05:51:58.952Z,0
2017-01-02T05:52:39.623Z,0
2017-01-02T05:53:20.173Z,0
2017-01-02T05:54:00.812Z,0
2017-01-02T05:54:41.423Z,0
2017-01-02T05:55:22.093Z,0
2017-01-02T05:56:02.729Z,0
2017-01-02T05:56:43.374Z,0
2017-01-02T05:57:24.129Z,0
2017-01-02T05:58:04.789Z,0
2017-01-02T05:58:45.457Z,0
2017-01-02T05:59:28.049Z,0
2017-01-02T06:00:08.695Z,0
2017-01-02T06:00:49.321Z,0
2017-01-02T06:01:29.888Z,0
2017-01-02T06:02:10.554Z,0
2017-01-02T06:02:51.197Z,0
2017-01-02T06:03:31.828Z,0
2017-01-02T06:04:12.509Z,0
2017-01-02T06:04:54.179Z,0
2017-01-02T06:05:35.212Z,0
2017-01-02T06:06:15.815Z,0
2017-01-02T06:06:57.880Z,0
2017-01-02T06:07:38.553Z,0
2017-01-02T06:08:19.191Z,0
2017-01-02T06:08:59.842Z,0
2017-01-02T06:09:41.762Z,0
2017-01-02T06:10:22.453Z,0
2017-01-02T06:11:03.482Z,0
2017-01-02T06:11:44.049Z,0
2017-01-02T06:12:25.659Z,0
2017-01-02T06:13:06.271Z,0
2017-01-02T06:13:46.919Z,0
2017-01-02T06:14:27.496Z,0
2017-01-02T06:15:08.119Z,0
2017-01-02T06:15:48.767Z,0
2017-01-02T06:16:29.736Z,0
2017-01-02T06:17:10.376Z,0
2017-01-02T06:17:51.034Z,0
2017-01-02T06:18:31.589Z,0
2017-01-02T06:19:12.232Z,0
2017-01-02T06:19:52.824Z,0
2017-01-02T06:20:33.525Z,0
2017-01-02T06:21:14.112Z,0
2017-01-02T06:21:54.677Z,0
2017-01-02T06:22:35.285Z,0
2017-01-02T06:23:15.945Z,0
2017-01-02T06:23:56.525Z,0
2017-01-02T06:24:37.148Z,0
2017-01-02T06:25:17.803Z,0
2017-01-02T06:25:58.378Z,0
2017-01-02T06:26:39.994Z,0
2017-01-02T06:27:20.595Z,0
2017-01-02T06:28:01.227Z,0
2017-01-02T06:28:41.787Z,0
2017-01-02T06:29:22.388Z,0
2017-01-02T06:30:02.999Z,0
2017-01-02T06:30:43.639Z,0
2017-01-02T06:31:24.296Z,0
2017-01-02T06:32:04.939Z,0
2017-01-02T06:32:45.598Z,0
2017-01-02T06:33:26.270Z,0
2017-01-02T06:34:06.910Z,0
2017-01-02T06:34:47.511Z,0
2017-01-02T06:35:28.192Z,0
2017-01-02T06:36:08.873Z,0
2017-01-02T06:36:49.517Z,0
2017-01-02T06:37:30.112Z,0
2017-01-02T06:38:10.793Z,0
2017-01-02T06:38:51.374Z,0
2017-01-02T06:39:32.021Z,0
2017-01-02T06:40:12.677Z,0
2017-01-02T06:40:53.326Z,0
2017-01-02T06:41:33.983Z,0
2017-01-02T06:42:14.636Z,0
2017-01-02T06:42:55.288Z,0
2017-01-02T06:43:35.959Z,0
2017-01-02T06:44:16.594Z,0
2017-01-02T06:44:57.243Z,0
2017-01-02T06:45:37.800Z,0
2017-01-02T06:46:18.524Z,0
2017-01-02T06:46:59.207Z,0
2017-01-02T06:47:39.860Z,0
2017-01-02T06:48:20.523Z,0
2017-01-02T06:49:01.191Z,0
2017-01-02T06:49:41.818Z,0
2017-01-02T06:50:22.474Z,0
2017-01-02T06:51:03.119Z,0
2017-01-02T06:51:45.628Z,0
2017-01-02T06:52:26.287Z,0
2017-01-02T06:53:06.928Z,0
2017-01-02T06:53:47.583Z,0
2017-01-02T06:54:28.142Z,0
2017-01-02T06:55:10.578Z,0
2017-01-02T06:55:51.278Z,0
2017-01-02T06:56:31.855Z,0
2017-01-02T06:57:12.487Z,0
2017-01-02T06:57:53.131Z,0
2017-01-02T06:58:33.714Z,0
2017-01-02T06:59:14.332Z,0
2017-01-02T06:59:54.992Z,0
2017-01-02T07:00:35.638Z,0
2017-01-02T07:01:16.303Z,0
2017-01-02T07:01:56.954Z,0
2017-01-02T07:02:37.517Z,0
2017-01-02T07:03:18.164Z,0
2017-01-02T07:03:58.811Z,0
2017-01-02T07:04:39.459Z,0
2017-01-02T07:05:20.112Z,0
2017-01-02T07:06:00.770Z,0
2017-01-02T07:06:41.423Z,0
2017-01-02T07:07:22.075Z,0
2017-01-02T07:08:02.725Z,0
2017-01-02T07:08:43.379Z,0
2017-01-02T07:09:24.442Z,0
2017-01-02T07:10:05.030Z,0
2017-01-02T07:10:45.690Z,0
2017-01-02T07:11:26.286Z,0
2017-01-02T07:12:06.950Z,0
2017-01-02T07:12:47.504Z,0
2017-01-02T07:13:28.112Z,0
2017-01-02T07:14:09.123Z,0
2017-01-02T07:14:49.775Z,0
2017-01-02T07:15:30.421Z,0
2017-01-02T07:16:10.987Z,0
2017-01-02T07:16:51.632Z,0
2017-01-02T07:17:32.310Z,0
2017-01-02T07:18:12.935Z,0
2017-01-02T07:18:53.589Z,0
2017-01-02T07:19:34.144Z,0
2017-01-02T07:20:14.731Z,0
2017-01-02T07:20:55.329Z,0
2017-01-02T07:21:35.996Z,0
2017-01-02T07:22:16.550Z,0
2017-01-02T07:22:57.155Z,0
2017-01-02T07:23:37.732Z,0
2017-01-02T07:24:18.789Z,0
2017-01-02T07:24:59.758Z,0
2017-01-02T07:25:40.424Z,0
2017-01-02T07:26:21.076Z,0
2017-01-02T07:27:01.627Z,0
2017-01-02T07:27:42.260Z,0
2017-01-02T07:28:22.931Z,0
2017-01-02T07:29:03.482Z,0
2017-01-02T07:29:44.126Z,0
2017-01-02T07:30:24.791Z,0
2017-01-02T07:31:05.354Z,0
2017-01-02T07:31:46.049Z,0
2017-01-02T07:32:26.748Z,0
2017-01-02T07:33:07.307Z,0
2017-01-02T07:33:47.960Z,0
2017-01-02T07:34:28.602Z,0
2017-01-02T07:35:09.260Z,0
2017-01-02T07:35:49.936Z,4
2017-01-02T07:36:30.583Z,0
2017-01-02T07:37:11.217Z,4
2017-01-02T07:37:51.913Z,4
2017-01-02T07:38:32.520Z,4
2017-01-02T07:39:13.172Z,4
2017-01-02T07:39:53.830Z,4
2017-01-02T07:40:34.465Z,4
2017-01-02T07:41:15.143Z,4
2017-01-02T07:41:55.784Z,4
2017-01-02T07:42:36.444Z,4
2017-01-02T07:43:17.083Z,4
2017-01-02T07:43:57.754Z,4
2017-01-02T07:44:38.343Z,4
2017-01-02T07:45:19.013Z,4
2017-01-02T07:46:00.064Z,4
2017-01-02T07:46:40.706Z,4
2017-01-02T07:47:21.370Z,0
2017-01-02T07:48:02.023Z,4
2017-01-02T07:48:42.652Z,0
2017-01-02T07:49:23.326Z,0
2017-01-02T07:50:04.040Z,4
2017-01-02T07:50:44.637Z,4
2017-01-02T07:51:25.278Z,4
2017-01-02T07:52:05.929Z,4
2017-01-02T07:52:46.621Z,4
2017-01-02T07:53:27.245Z,4
2017-01-02T07:54:09.018Z,4
2017-01-02T07:54:49.677Z,0
2017-01-02T07:55:30.247Z,4
2017-01-02T07:56:10.966Z,4
2017-01-02T07:56:51.638Z,4
2017-01-02T07:57:32.194Z,8
2017-01-02T07:58:13.757Z,8
2017-01-02T07:58:56.471Z,8
2017-01-02T07:59:37.047Z,4
2017-01-02T08:00:17.722Z,8
2017-01-02T10:16:55.695Z,68
2017-01-02T10:17:36.361Z,68
2017-01-02T10:18:17.006Z,64
2017-01-02T10:18:57.665Z,72
2017-01-02T10:19:38.325Z,64
2017-01-02T10:20:18.884Z,56
2017-01-02T10:20:59.556Z,52
2017-01-02T10:21:40.168Z,44
2017-01-02T10:22:20.773Z,40
2017-01-02T10:23:01.375Z,40
2017-01-02T10:23:42.016Z,40
2017-01-02T10:24:22.623Z,44
2017-01-02T10:25:03.225Z,44
2017-01-02T10:25:43.890Z,48
2017-01-02T10:26:24.495Z,44
2017-01-02T10:27:05.136Z,40
2017-01-02T10:27:45.761Z,36
2017-01-02T10:28:26.396Z,36
2017-01-02T10:29:06.962Z,32
2017-01-02T10:29:47.550Z,32
2017-01-02T10:30:28.144Z,32
2017-01-02T10:31:10.025Z,28
2017-01-02T10:31:50.575Z,32
2017-01-02T10:32:31.271Z,32
2017-01-02T10:33:11.824Z,32
2017-01-02T10:33:52.471Z,36
2017-01-02T10:34:33.084Z,36
2017-01-02T10:35:13.733Z,40
2017-01-02T10:35:54.341Z,40
2017-01-02T10:36:35.007Z,40
2017-01-02T10:37:15.813Z,40
2017-01-02T10:37:56.448Z,40
2017-01-02T10:38:37.003Z,44
2017-01-02T10:39:17.596Z,52
2017-01-02T10:39:58.199Z,60
2017-01-02T10:40:38.851Z,72
2017-01-02T10:41:19.508Z,88
2017-01-02T10:42:00.152Z,104
2017-01-02T10:42:40.817Z,124
2017-01-02T10:43:21.489Z,136
2017-01-02T10:44:02.253Z,132
2017-01-02T10:44:42.892Z,120
2017-01-02T10:45:23.628Z,120
2017-01-02T10:46:04.300Z,128
2017-01-02T10:46:44.953Z,152
2017-01-02T10:47:25.602Z,116
2017-01-02T10:48:06.259Z,112
2017-01-02T10:48:46.912Z,112
2017-01-02T10:49:27.558Z,108
2017-01-02T10:50:08.136Z,96
2017-01-02T10:50:48.816Z,88
2017-01-02T10:51:29.406Z,84
2017-01-02T10:52:10.059Z,80
2017-01-02T10:52:50.712Z,84
2017-01-02T10:53:31.338Z,96
2017-01-02T10:54:11.911Z,100
2017-01-02T10:54:52.462Z,96
2017-01-02T10:55:33.115Z,92
2017-01-02T10:56:13.746Z,92
2017-01-02T10:56:54.392Z,92
2017-01-02T10:57:35.018Z,104
2017-01-02T10:58:15.715Z,112
2017-01-02T10:58:56.348Z,116
2017-01-02T10:59:37.031Z,112
2017-01-02T11:00:17.646Z,104
2017-01-02T11:00:58.336Z,100
2017-01-02T11:01:38.957Z,92
2017-01-02T11:02:19.604Z,80
2017-01-02T11:03:00.265Z,72
2017-01-02T11:03:40.927Z,68
2017-01-02T11:04:21.581Z,68
2017-01-02T11:05:02.210Z,68
2017-01-02T11:05:42.819Z,68
2017-01-02T11:06:23.471Z,68
2017-01-02T11:07:04.034Z,72
2017-01-02T11:07:44.616Z,80
2017-01-02T11:08:25.210Z,84
2017-01-02T11:09:05.876Z,88
2017-01-02T11:09:46.428Z,88
2017-01-02T11:10:27.022Z,100
2017-01-02T11:11:07.628Z,112
2017-01-02T11:11:48.292Z,120
2017-01-02T11:12:28.892Z,128
2017-01-02T11:13:09.543Z,140
2017-01-02T11:13:50.104Z,156
2017-01-02T11:14:30.804Z,180
2017-01-02T11:15:11.433Z,204
2017-01-02T11:15:52.037Z,216
2017-01-02T11:16:32.696Z,248
2017-01-02T11:17:13.319Z,272
2017-01-02T11:17:53.946Z,236
2017-01-02T11:18:34.517Z,224
2017-01-02T11:19:15.127Z,220
2017-01-02T11:19:55.840Z,188
2017-01-02T11:20:36.458Z,176
2017-01-02T11:21:17.049Z,168
2017-01-02T11:21:57.711Z,168
2017-01-02T11:22:38.321Z,164
2017-01-02T11:23:18.980Z,160
2017-01-02T11:23:59.537Z,144
2017-01-02T11:24:40.177Z,136
2017-01-02T11:25:20.743Z,128
2017-01-02T11:26:01.340Z,124
2017-01-02T11:26:41.980Z,116
2017-01-02T11:27:22.633Z,108
2017-01-02T11:28:03.299Z,108
2017-01-02T11:28:43.953Z,108
2017-01-02T11:29:24.629Z,104
2017-01-02T11:30:05.268Z,100
2017-01-02T11:30:45.924Z,100
2017-01-02T11:31:26.559Z,96
2017-01-02T11:32:07.206Z,92
2017-01-02T11:32:47.845Z,88
2017-01-02T11:33:28.545Z,84
2017-01-02T11:34:09.226Z,80
2017-01-02T11:34:49.854Z,80
2017-01-02T11:35:30.629Z,80
2017-01-02T11:36:11.306Z,84
2017-01-02T11:36:51.931Z,80
2017-01-02T11:37:32.611Z,84
2017-01-02T11:38:13.236Z,88
2017-01-02T11:38:53.900Z,92
2017-01-02T11:39:34.529Z,96
2017-01-02T11:40:15.102Z,96
2017-01-02T11:40:55.688Z,100
2017-01-02T11:41:36.297Z,104
2017-01-02T11:42:18.961Z,104
2017-01-02T11:42:59.510Z,108
2017-01-02T11:43:40.088Z,112
2017-01-02T11:44:20.707Z,112
2017-01-02T11:45:01.350Z,112
2017-01-02T11:45:43.023Z,108
2017-01-02T11:46:23.588Z,104
2017-01-02T11:47:04.231Z,100
2017-01-02T11:47:45.909Z,104
2017-01-02T11:48:28.517Z,100
2017-01-02T11:49:13.770Z,104
2017-01-02T11:49:54.533Z,104
2017-01-02T11:50:35.185Z,104
2017-01-02T11:51:15.757Z,104
2017-01-02T11:51:56.443Z,104
2017-01-02T11:52:37.031Z,108
2017-01-02T11:53:18.708Z,104
2017-01-02T11:53:59.253Z,108
2017-01-02T11:54:39.897Z,112
2017-01-02T11:55:20.501Z,112
2017-01-02T11:56:03.172Z,120
2017-01-02T11:56:43.823Z,116
2017-01-02T11:57:24.479Z,120
2017-01-02T11:58:05.132Z,124
2017-01-02T11:58:46.803Z,132
2017-01-02T11:59:27.483Z,140
2017-01-02T12:00:08.105Z,140
2017-01-02T12:00:48.753Z,128
2017-01-02T12:01:29.409Z,124
2017-01-02T12:02:11.082Z,124
2017-01-02T12:02:53.759Z,124
2017-01-02T12:03:34.336Z,124
2017-01-02T12:04:14.993Z,120
2017-01-02T12:04:55.653Z,120
2017-01-02T12:05:36.307Z,132
2017-01-02T12:06:16.858Z,144
2017-01-02T12:06:57.499Z,144
2017-01-02T12:07:38.156Z,152
2017-01-02T12:08:18.746Z,148
2017-01-02T12:08:59.366Z,120
2017-01-02T12:09:40.041Z,112
2017-01-02T12:10:20.612Z,100
2017-01-02T12:11:01.209Z,96